createdAt,value
2018-06-30T00:00:25.205Z,27.33
2018-06-30T00:02:53.714Z,27.57
2018-06-30T00:05:22.863Z,26.17
2018-06-30T00:07:52.415Z,28.63
2018-06-30T00:10:29.747Z,26.63
2018-06-30T00:13:00.178Z,26.60
2018-06-30T00:15:29.334Z,27.87
2018-06-30T00:17:58.610Z,28.67
2018-06-30T00:20:27.718Z,27.73
2018-06-30T00:22:56.975Z,28.13
2018-06-30T00:25:26.044Z,25.07
2018-06-30T00:27:56.614Z,34.20
2018-06-30T00:30:26.971Z,29.63
2018-06-30T00:32:56.842Z,29.90
2018-06-30T00:35:25.939Z,31.67
2018-06-30T00:37:55.394Z,30.60
2018-06-30T00:40:25.003Z,29.03
2018-06-30T00:42:54.975Z,29.77
2018-06-30T00:45:23.722Z,26.20
2018-06-30T00:47:53.069Z,28.67
2018-06-30T00:50:22.174Z,32.77
2018-06-30T00:52:51.291Z,29.70
2018-06-30T00:55:20.459Z,31.40
2018-06-30T00:57:49.550Z,31.40
2018-06-30T01:00:18.638Z,29.87
2018-06-30T01:02:47.767Z,30.30
2018-06-30T01:05:16.906Z,28.23
2018-06-30T01:07:46.259Z,32.63
2018-06-30T01:10:15.393Z,32.43
2018-06-30T01:12:44.551Z,34.30
2018-06-30T01:15:14.350Z,33.13
2018-06-30T01:17:43.614Z,30.87
2018-06-30T01:20:13.290Z,30.80
2018-06-30T01:22:42.382Z,41.83
2018-06-30T01:25:11.458Z,34.20
2018-06-30T01:27:40.587Z,34.27
2018-06-30T01:30:11.171Z,31.70
2018-06-30T01:32:41.109Z,35.67
2018-06-30T01:35:11.004Z,34.60
2018-06-30T01:37:40.918Z,36.97
2018-06-30T01:40:10.038Z,39.97
2018-06-30T01:42:39.183Z,37.20
2018-06-30T01:45:08.367Z,39.07
2018-06-30T01:47:37.504Z,45.63
2018-06-30T01:50:06.611Z,42.10
2018-06-30T01:52:35.661Z,42.87
2018-06-30T01:55:04.765Z,45.90
2018-06-30T01:57:33.866Z,40.10
2018-06-30T02:00:03.008Z,42.83
2018-06-30T02:02:32.155Z,41.63
2018-06-30T02:05:01.254Z,45.90
2018-06-30T02:07:30.502Z,48.00
2018-06-30T02:09:59.647Z,41.30
2018-06-30T02:12:28.757Z,41.70
2018-06-30T02:14:57.883Z,37.07
2018-06-30T02:17:26.977Z,36.93
2018-06-30T02:19:56.137Z,34.23
2018-06-30T02:22:25.298Z,33.57
2018-06-30T02:24:54.416Z,42.33
2018-06-30T02:27:23.522Z,33.77
2018-06-30T02:29:52.650Z,36.03
2018-06-30T02:32:21.742Z,40.93
2018-06-30T02:34:51.830Z,37.83
2018-06-30T02:37:21.450Z,38.20
2018-06-30T02:39:50.558Z,39.97
2018-06-30T02:42:19.682Z,33.17
2018-06-30T02:44:48.766Z,40.60
2018-06-30T02:47:17.866Z,41.50
2018-06-30T02:49:47.006Z,45.90
2018-06-30T02:52:16.142Z,39.90
2018-06-30T02:54:45.314Z,37.63
2018-06-30T02:57:14.438Z,42.50
2018-06-30T02:59:43.530Z,41.47
2018-06-30T03:02:12.626Z,43.07
2018-06-30T03:04:41.759Z,44.60
2018-06-30T03:07:10.855Z,48.67
2018-06-30T03:09:39.975Z,44.70
2018-06-30T03:12:09.962Z,43.77
2018-06-30T03:14:39.288Z,40.17
2018-06-30T03:17:08.470Z,42.33
2018-06-30T03:19:37.600Z,39.97
2018-06-30T03:22:06.714Z,42.50
2018-06-30T03:24:35.841Z,50.07
2018-06-30T03:27:05.259Z,43.63
2018-06-30T03:29:34.354Z,41.23
2018-06-30T03:32:04.239Z,45.00
2018-06-30T03:34:33.370Z,52.27
2018-06-30T03:37:02.458Z,33.83
2018-06-30T03:39:31.618Z,43.90
2018-06-30T03:42:00.754Z,41.43
2018-06-30T03:44:29.866Z,38.63
2018-06-30T03:46:58.986Z,37.00
2018-06-30T03:49:28.259Z,37.10
2018-06-30T03:51:57.467Z,37.27
2018-06-30T03:54:26.681Z,40.30
2018-06-30T03:56:55.855Z,37.20
2018-06-30T03:59:25.160Z,39.53
2018-06-30T04:01:54.348Z,37.20
2018-06-30T04:04:23.507Z,37.10
2018-06-30T04:06:52.666Z,31.73
2018-06-30T04:09:21.780Z,30.73
2018-06-30T04:11:50.919Z,32.50
2018-06-30T04:14:20.063Z,28.30
2018-06-30T04:16:49.179Z,28.50
2018-06-30T04:19:18.302Z,26.03
2018-06-30T04:21:48.052Z,26.10
2018-06-30T04:24:17.193Z,25.43
2018-06-30T04:26:46.329Z,24.13
2018-06-30T04:29:15.464Z,22.60
2018-06-30T04:31:44.829Z,22.57
2018-06-30T04:34:13.960Z,22.67
2018-06-30T04:36:43.102Z,21.00
2018-06-30T04:39:12.362Z,20.87
2018-06-30T04:41:42.107Z,22.63
2018-06-30T04:44:11.983Z,22.50
2018-06-30T04:46:41.907Z,20.47
2018-06-30T04:49:12.047Z,21.50
2018-06-30T04:51:41.340Z,21.30
2018-06-30T04:54:11.032Z,22.10
2018-06-30T04:56:40.946Z,20.83
2018-06-30T04:59:10.880Z,20.00
2018-06-30T05:01:40.847Z,20.20
2018-06-30T05:04:10.389Z,19.87
2018-06-30T05:06:40.619Z,19.67
2018-06-30T05:09:09.931Z,19.97
2018-06-30T05:11:39.471Z,23.60
2018-06-30T05:14:09.323Z,19.90
2018-06-30T05:16:38.462Z,21.77
2018-06-30T05:19:07.558Z,19.67
2018-06-30T05:21:36.678Z,21.23
2018-06-30T05:24:05.840Z,20.23
2018-06-30T05:26:34.935Z,20.40
2018-06-30T05:29:04.602Z,21.07
2018-06-30T05:31:34.126Z,21.27
2018-06-30T05:34:03.290Z,21.40
2018-06-30T05:36:32.879Z,22.53
2018-06-30T05:39:02.063Z,22.97
2018-06-30T05:41:31.171Z,21.60
2018-06-30T05:44:00.326Z,20.90
2018-06-30T05:46:29.530Z,22.10
2018-06-30T05:48:58.782Z,22.60
2018-06-30T05:51:27.925Z,22.77
2018-06-30T05:53:57.087Z,22.60
2018-06-30T05:56:26.972Z,20.77
2018-06-30T05:58:56.058Z,22.03
2018-06-30T06:01:25.205Z,20.43
2018-06-30T06:03:54.332Z,23.03
2018-06-30T06:06:23.458Z,22.40
2018-06-30T06:08:52.615Z,21.17
2018-06-30T06:11:21.742Z,21.40
2018-06-30T06:13:50.848Z,22.23
2018-06-30T06:16:19.982Z,22.20
2018-06-30T06:18:49.159Z,23.90
2018-06-30T06:21:18.879Z,22.90
2018-06-30T06:23:48.172Z,22.10
2018-06-30T06:26:17.283Z,21.17
2018-06-30T06:28:46.419Z,21.37
2018-06-30T06:31:15.522Z,21.80
2018-06-30T06:33:44.634Z,20.90
2018-06-30T06:36:13.774Z,22.00
2018-06-30T06:38:43.091Z,21.30
2018-06-30T06:41:12.522Z,21.57
2018-06-30T06:43:41.798Z,21.00
2018-06-30T06:46:12.015Z,22.40
2018-06-30T06:48:41.316Z,20.80
2018-06-30T06:51:10.575Z,23.30
2018-06-30T06:53:40.651Z,20.83
2018-06-30T06:56:10.466Z,23.40
2018-06-30T06:58:40.408Z,21.20
2018-06-30T07:01:10.382Z,22.93
2018-06-30T07:03:40.202Z,21.83
2018-06-30T07:06:11.960Z,23.30
2018-06-30T07:08:42.831Z,22.20
2018-06-30T07:11:12.586Z,23.87
2018-06-30T07:13:41.906Z,23.13
2018-06-30T07:16:11.742Z,23.73
2018-06-30T07:18:41.528Z,21.90
2018-06-30T07:21:11.082Z,20.03
2018-06-30T07:23:40.507Z,21.07
2018-06-30T07:26:10.056Z,19.97
2018-06-30T07:28:39.551Z,22.23
2018-06-30T07:31:08.902Z,21.83
2018-06-30T07:33:38.239Z,20.80
2018-06-30T07:36:07.677Z,23.67
2018-06-30T07:38:37.546Z,20.70
2018-06-30T07:41:07.611Z,23.67
2018-06-30T07:43:37.299Z,21.00
2018-06-30T07:46:06.723Z,21.20
2018-06-30T07:48:36.329Z,22.27
2018-06-30T07:51:05.723Z,21.57
2018-06-30T07:53:35.025Z,20.60
2018-06-30T07:56:04.828Z,20.03
2018-06-30T07:58:34.514Z,19.47
2018-06-30T08:01:03.638Z,20.40
2018-06-30T08:03:32.774Z,20.60
2018-06-30T08:06:01.891Z,21.70
2018-06-30T08:08:30.991Z,21.27
2018-06-30T08:11:00.127Z,18.90
2018-06-30T08:13:29.243Z,21.07
2018-06-30T08:15:58.346Z,19.07
2018-06-30T08:18:28.257Z,19.93
2018-06-30T08:20:58.270Z,20.23
2018-06-30T08:23:27.742Z,19.37
2018-06-30T08:25:57.262Z,17.70
2018-06-30T08:28:26.652Z,18.93
2018-06-30T08:30:55.810Z,20.47
2018-06-30T08:33:25.322Z,19.87
2018-06-30T08:35:54.479Z,17.23
2018-06-30T08:38:23.653Z,18.37
2018-06-30T08:40:52.780Z,17.70
2018-06-30T08:43:21.893Z,17.37
2018-06-30T08:45:51.775Z,21.10
2018-06-30T08:48:20.882Z,18.90
2018-06-30T08:50:50.043Z,19.70
2018-06-30T08:53:19.190Z,14.83
2018-06-30T08:55:48.283Z,15.47
2018-06-30T08:58:18.791Z,14.50
2018-06-30T09:00:48.215Z,14.00
2018-06-30T09:03:17.271Z,16.60
2018-06-30T09:05:46.381Z,14.90
2018-06-30T09:08:15.522Z,17.77
2018-06-30T09:10:44.722Z,19.00
2018-06-30T09:13:13.739Z,18.40
2018-06-30T09:15:42.894Z,18.80
2018-06-30T09:18:11.991Z,18.20
2018-06-30T09:20:41.090Z,17.10
2018-06-30T09:23:10.210Z,17.20
2018-06-30T09:25:39.310Z,17.83
2018-06-30T09:28:08.409Z,18.20
2018-06-30T09:30:37.558Z,17.20
2018-06-30T09:33:06.675Z,17.10
2018-06-30T09:35:36.725Z,18.17
2018-06-30T09:38:06.380Z,16.10
2018-06-30T09:40:36.366Z,16.10
2018-06-30T09:43:05.646Z,14.57
2018-06-30T09:45:35.431Z,15.00
2018-06-30T09:48:05.166Z,15.23
2018-06-30T09:50:34.443Z,14.43
2018-06-30T09:53:04.316Z,13.90
2018-06-30T09:55:33.900Z,13.33
2018-06-30T09:58:03.351Z,14.13
2018-06-30T10:00:38.462Z,12.90
2018-06-30T10:03:08.458Z,11.83
2018-06-30T10:05:37.824Z,15.43
2018-06-30T10:08:07.225Z,12.73
2018-06-30T10:10:36.539Z,12.17
2018-06-30T10:13:06.041Z,13.33
2018-06-30T10:15:35.711Z,11.07
2018-06-30T10:18:05.842Z,12.10
2018-06-30T10:20:35.089Z,12.77
2018-06-30T10:23:04.366Z,13.77
2018-06-30T10:25:34.166Z,12.07
2018-06-30T10:28:03.774Z,12.50
2018-06-30T10:30:33.070Z,12.43
2018-06-30T10:33:02.694Z,13.07
2018-06-30T10:35:32.035Z,10.33
2018-06-30T10:38:01.947Z,12.90
2018-06-30T10:40:31.058Z,11.20
2018-06-30T10:43:00.235Z,11.40
2018-06-30T10:45:30.038Z,13.17
2018-06-30T10:47:59.145Z,10.50
2018-06-30T10:50:28.963Z,10.00
2018-06-30T10:52:58.111Z,11.07
2018-06-30T10:55:27.280Z,11.03
2018-06-30T10:57:56.386Z,11.07
2018-06-30T11:00:25.629Z,12.43
2018-06-30T11:02:54.634Z,12.23
2018-06-30T11:05:23.800Z,12.53
2018-06-30T11:07:53.202Z,11.70
2018-06-30T11:10:22.309Z,8.30
2018-06-30T11:12:51.926Z,9.20
2018-06-30T11:15:21.011Z,7.83
2018-06-30T11:17:50.979Z,8.40
2018-06-30T11:20:20.067Z,9.90
2018-06-30T11:22:49.154Z,9.40
2018-06-30T11:25:18.291Z,7.90
2018-06-30T11:27:47.410Z,7.90
2018-06-30T11:30:16.567Z,8.30
2018-06-30T11:32:45.712Z,9.80
2018-06-30T11:35:14.787Z,9.53
2018-06-30T11:37:43.890Z,8.10
2018-06-30T11:40:13.521Z,8.90
2018-06-30T11:42:42.971Z,11.60
2018-06-30T11:45:12.759Z,8.20
2018-06-30T11:47:42.106Z,7.90
2018-06-30T11:50:11.879Z,6.97
2018-06-30T11:52:41.196Z,8.23
2018-06-30T11:55:10.330Z,7.27
2018-06-30T11:57:39.420Z,7.10
2018-06-30T12:00:09.642Z,8.87
2018-06-30T12:02:39.750Z,7.50
2018-06-30T12:05:09.162Z,7.73
2018-06-30T12:07:38.259Z,7.87
2018-06-30T12:10:07.439Z,8.40
2018-06-30T12:12:36.678Z,7.90
2018-06-30T12:15:06.475Z,8.17
2018-06-30T12:17:35.607Z,8.70
2018-06-30T12:20:05.067Z,7.63
2018-06-30T12:22:34.496Z,7.00
2018-06-30T12:25:03.636Z,6.67
2018-06-30T12:27:32.722Z,6.87
2018-06-30T12:30:01.828Z,8.47
2018-06-30T12:32:31.538Z,6.67
2018-06-30T12:35:00.659Z,7.30
2018-06-30T12:37:29.762Z,6.80
2018-06-30T12:39:59.274Z,7.30
2018-06-30T12:42:28.744Z,6.53
2018-06-30T12:44:58.408Z,9.80
2018-06-30T12:47:28.344Z,6.40
2018-06-30T12:49:57.798Z,8.70
2018-06-30T12:52:27.041Z,6.03
2018-06-30T12:54:56.364Z,6.33
2018-06-30T12:57:25.447Z,6.50
2018-06-30T12:59:55.305Z,7.23
2018-06-30T13:02:24.999Z,8.63
2018-06-30T13:04:55.702Z,7.53
2018-06-30T13:07:24.814Z,6.90
2018-06-30T13:09:53.923Z,6.50
2018-06-30T13:12:24.006Z,7.07
2018-06-30T13:14:53.091Z,6.63
2018-06-30T13:17:22.167Z,8.67
2018-06-30T13:19:51.309Z,6.80
2018-06-30T13:22:21.434Z,7.37
2018-06-30T13:24:50.976Z,6.53
2018-06-30T13:27:20.970Z,10.03
2018-06-30T13:29:50.746Z,5.67
2018-06-30T13:32:21.027Z,6.53
2018-06-30T13:34:50.442Z,8.30
2018-06-30T13:37:19.600Z,7.40
2018-06-30T13:39:48.691Z,6.57
2018-06-30T13:42:18.656Z,7.23
2018-06-30T13:44:48.730Z,7.70
2018-06-30T13:47:17.834Z,8.93
2018-06-30T13:49:46.942Z,7.40
2018-06-30T13:52:16.102Z,7.10
2018-06-30T13:54:47.368Z,9.63
2018-06-30T13:57:17.766Z,8.90
2018-06-30T13:59:47.126Z,6.47
2018-06-30T14:02:16.233Z,7.13
2018-06-30T14:04:45.470Z,6.40
2018-06-30T14:07:15.046Z,8.03
2018-06-30T14:09:44.133Z,6.57
2018-06-30T14:12:13.402Z,6.80
2018-06-30T14:14:42.558Z,7.20
2018-06-30T14:17:11.692Z,6.53
2018-06-30T14:19:40.818Z,13.80
2018-06-30T14:22:10.683Z,7.40
2018-06-30T14:24:39.792Z,8.07
2018-06-30T14:27:08.938Z,6.30
2018-06-30T14:29:38.737Z,6.63
2018-06-30T14:32:07.958Z,6.80
2018-06-30T14:34:37.066Z,9.20
2018-06-30T14:37:06.180Z,10.20
2018-06-30T14:39:35.790Z,6.03
2018-06-30T14:42:05.146Z,6.57
2018-06-30T14:44:34.459Z,7.00
2018-06-30T14:47:03.733Z,6.47
2018-06-30T14:49:33.240Z,8.00
2018-06-30T14:52:03.659Z,8.00
2018-06-30T14:54:32.919Z,8.27
2018-06-30T14:57:02.095Z,6.43
2018-06-30T14:59:31.202Z,9.83
2018-06-30T15:02:00.366Z,6.30
2018-06-30T15:04:29.439Z,6.87
2018-06-30T15:06:58.598Z,7.67
2018-06-30T15:09:28.387Z,9.60
2018-06-30T15:11:57.497Z,6.97
2018-06-30T15:14:26.619Z,12.10
2018-06-30T15:16:55.714Z,7.03
2018-06-30T15:19:24.799Z,7.77
2018-06-30T15:21:53.971Z,6.90
2018-06-30T15:24:23.763Z,9.77
2018-06-30T15:26:52.886Z,6.77
2018-06-30T15:29:22.026Z,8.90
2018-06-30T15:31:51.143Z,6.87
2018-06-30T15:34:20.223Z,8.23
2018-06-30T15:36:49.347Z,7.30
2018-06-30T15:39:18.472Z,9.13
2018-06-30T15:41:47.602Z,7.23
2018-06-30T15:44:16.723Z,7.30
2018-06-30T15:46:46.436Z,8.40
2018-06-30T15:49:15.923Z,6.67
2018-06-30T15:51:45.400Z,7.93
2018-06-30T15:54:14.546Z,9.60
2018-06-30T15:56:43.741Z,10.03
2018-06-30T15:59:13.232Z,8.77
2018-06-30T16:01:43.246Z,8.27
2018-06-30T16:04:13.181Z,8.50
2018-06-30T16:06:42.505Z,6.87
2018-06-30T16:09:12.438Z,11.30
2018-06-30T16:11:41.782Z,7.70
2018-06-30T16:14:10.975Z,7.50
2018-06-30T16:16:40.362Z,9.50
2018-06-30T16:19:09.467Z,6.97
2018-06-30T16:21:39.321Z,7.60
2018-06-30T16:24:08.409Z,9.63
2018-06-30T16:26:37.506Z,12.60
2018-06-30T16:29:06.614Z,14.97
2018-06-30T16:31:35.854Z,7.37
2018-06-30T16:34:05.249Z,6.93
2018-06-30T16:36:34.687Z,9.37
2018-06-30T16:39:06.690Z,7.73
2018-06-30T16:41:36.594Z,7.90
2018-06-30T16:44:05.970Z,9.47
2018-06-30T16:46:35.622Z,8.87
2018-06-30T16:49:04.942Z,7.90
2018-06-30T16:51:34.214Z,6.60
2018-06-30T16:54:04.176Z,9.93
2018-06-30T16:56:33.282Z,8.53
2018-06-30T16:59:03.178Z,8.83
2018-06-30T17:01:32.280Z,12.00
2018-06-30T17:04:01.859Z,7.73
2018-06-30T17:06:31.584Z,8.23
2018-06-30T17:09:00.670Z,11.10
2018-06-30T17:11:29.795Z,9.13
2018-06-30T17:13:58.862Z,8.57
2018-06-30T17:16:28.039Z,9.87
2018-06-30T17:18:57.211Z,8.40
2018-06-30T17:21:26.320Z,13.90
2018-06-30T17:23:55.430Z,13.30
2018-06-30T17:26:24.919Z,8.33
2018-06-30T17:28:54.722Z,7.33
2018-06-30T17:31:24.234Z,11.70
2018-06-30T17:33:53.366Z,8.40
2018-06-30T17:36:22.466Z,9.43
2018-06-30T17:38:52.342Z,8.17
2018-06-30T17:41:22.578Z,9.00
2018-06-30T17:43:51.905Z,9.20
2018-06-30T17:46:21.299Z,8.63
2018-06-30T17:48:50.450Z,11.73
2018-06-30T17:51:20.289Z,8.57
2018-06-30T17:53:49.511Z,7.50
2018-06-30T17:56:18.640Z,9.50
2018-06-30T17:58:47.770Z,8.20
2018-06-30T18:01:16.882Z,13.53
2018-06-30T18:03:46.018Z,8.50
2018-06-30T18:06:15.414Z,9.97
2018-06-30T18:08:44.619Z,7.57
2018-06-30T18:11:14.200Z,9.87
2018-06-30T18:13:43.726Z,9.33
2018-06-30T18:16:12.990Z,9.20
2018-06-30T18:18:43.614Z,12.70
2018-06-30T18:21:13.142Z,8.10
2018-06-30T18:23:42.890Z,7.77
2018-06-30T18:26:12.017Z,12.43
2018-06-30T18:28:41.864Z,8.20
2018-06-30T18:31:11.003Z,9.40
2018-06-30T18:33:40.145Z,8.30
2018-06-30T18:36:09.908Z,9.70
2018-06-30T18:38:39.054Z,8.43
2018-06-30T18:41:08.184Z,10.43
2018-06-30T18:43:37.290Z,8.03
2018-06-30T18:46:07.151Z,7.80
2018-06-30T18:48:36.309Z,9.00
2018-06-30T18:51:06.127Z,8.30
2018-06-30T18:53:35.699Z,13.43
2018-06-30T18:56:05.743Z,7.93
2018-06-30T18:58:37.851Z,9.23
2018-06-30T19:01:07.026Z,8.23
2018-06-30T19:03:36.204Z,10.00
2018-06-30T19:06:06.410Z,11.97
2018-06-30T19:08:36.184Z,9.23
2018-06-30T19:11:05.603Z,9.67
2018-06-30T19:13:34.739Z,8.23
2018-06-30T19:16:04.983Z,11.97
2018-06-30T19:18:34.586Z,7.80
2018-06-30T19:21:04.170Z,8.47
2018-06-30T19:23:33.606Z,10.13
2018-06-30T19:26:03.483Z,9.77
2018-06-30T19:28:33.409Z,9.67
2018-06-30T19:31:03.306Z,8.17
2018-06-30T19:33:34.327Z,8.10
2018-06-30T19:36:03.754Z,8.03
2018-06-30T19:38:33.610Z,12.43
2018-06-30T19:41:03.227Z,9.27
2018-06-30T19:43:33.194Z,8.50
2018-06-30T19:46:02.563Z,10.30
2018-06-30T19:48:32.154Z,9.83
2018-06-30T19:51:01.345Z,10.03
2018-06-30T19:53:30.670Z,13.53
2018-06-30T19:56:00.450Z,11.17
2018-06-30T19:58:30.555Z,8.17
2018-06-30T20:00:59.622Z,9.33
2018-06-30T20:03:29.486Z,8.30
2018-06-30T20:05:59.481Z,9.17
2018-06-30T20:08:30.083Z,10.47
2018-06-30T20:11:00.048Z,13.03
2018-06-30T20:13:29.206Z,12.87
2018-06-30T20:15:59.327Z,9.30
2018-06-30T20:18:28.662Z,9.47
2018-06-30T20:20:57.820Z,8.00
2018-06-30T20:23:27.050Z,7.30
2018-06-30T20:25:56.138Z,9.70
2018-06-30T20:28:25.417Z,11.37
2018-06-30T20:30:54.866Z,8.17
2018-06-30T20:33:24.239Z,7.10
2018-06-30T20:38:50.771Z,8.17
2018-06-30T20:41:21.002Z,5.80
2018-06-30T20:43:50.314Z,6.50
2018-06-30T20:46:20.215Z,8.50
2018-06-30T20:48:49.834Z,8.13
2018-06-30T20:51:20.067Z,9.30
2018-06-30T20:53:49.482Z,6.90
2018-06-30T20:56:19.585Z,5.50
2018-06-30T20:58:49.439Z,4.67
2018-06-30T21:01:19.201Z,13.33
2018-06-30T21:03:49.943Z,13.07
2018-06-30T21:06:20.214Z,13.50
2018-06-30T21:08:49.730Z,8.40
2018-06-30T21:11:21.094Z,6.70
2018-06-30T21:13:50.548Z,4.70
2018-06-30T21:16:19.676Z,4.77
2018-06-30T21:18:48.803Z,4.40
2018-06-30T21:21:18.661Z,4.30
2018-06-30T21:23:47.754Z,8.10
2018-06-30T21:26:16.912Z,4.70
2018-06-30T21:28:46.008Z,4.70
2018-06-30T21:31:15.110Z,5.10
2018-06-30T21:33:44.371Z,4.30
2018-06-30T21:36:14.435Z,4.40
2018-06-30T21:38:43.821Z,5.33
2018-06-30T21:41:13.657Z,7.07
2018-06-30T21:43:42.774Z,11.80
2018-06-30T21:46:11.923Z,8.20
2018-06-30T21:48:41.238Z,3.93
2018-06-30T21:51:10.329Z,3.53
2018-06-30T21:53:40.322Z,4.33
2018-06-30T21:56:09.413Z,4.40
2018-06-30T21:58:38.497Z,15.17
2018-06-30T22:01:14.474Z,4.73
2018-06-30T22:03:43.992Z,6.50
2018-06-30T22:06:13.767Z,6.47
2018-06-30T22:08:43.929Z,4.67
2018-06-30T22:11:13.191Z,6.77
2018-06-30T22:13:42.837Z,4.83
2018-06-30T22:16:11.987Z,4.10
2018-06-30T22:18:41.151Z,5.23
2018-06-30T22:21:10.674Z,3.30
2018-06-30T22:23:39.782Z,6.50
2018-06-30T22:26:09.343Z,3.40
2018-06-30T22:28:39.243Z,5.53
2018-06-30T22:31:08.863Z,3.83
2018-06-30T22:33:38.438Z,4.70
2018-06-30T22:36:07.985Z,3.80
2018-06-30T22:38:37.059Z,8.17
2018-06-30T22:41:06.140Z,4.87
2018-06-30T22:43:35.474Z,5.67
2018-06-30T22:46:05.846Z,5.13
2018-06-30T22:48:35.277Z,4.83
2018-06-30T22:51:04.371Z,5.17
2018-06-30T22:53:33.473Z,4.60
2018-06-30T22:56:02.602Z,5.07
2018-06-30T22:58:31.698Z,3.30
2018-06-30T23:01:00.786Z,3.50
2018-06-30T23:03:29.951Z,2.87
2018-06-30T23:05:59.807Z,3.17
2018-06-30T23:08:28.918Z,3.80
2018-06-30T23:10:58.510Z,6.87
2018-06-30T23:13:27.630Z,3.50
2018-06-30T23:15:56.766Z,3.80
2018-06-30T23:18:26.087Z,4.17
2018-06-30T23:20:56.044Z,6.00
2018-06-30T23:23:25.197Z,3.63
2018-06-30T23:25:54.311Z,5.13
2018-06-30T23:28:23.378Z,3.53
2018-06-30T23:30:52.531Z,6.90
2018-06-30T23:33:21.822Z,3.70
2018-06-30T23:35:51.075Z,6.70
2018-06-30T23:38:20.357Z,5.03
2018-06-30T23:40:49.979Z,5.77
2018-06-30T23:43:19.065Z,6.43
2018-06-30T23:45:48.147Z,3.70
2018-06-30T23:48:17.295Z,4.20
2018-06-30T23:50:46.371Z,3.30
2018-06-30T23:53:15.459Z,6.27
2018-06-30T23:55:44.573Z,6.93
2018-06-30T23:58:13.675Z,4.40
